sensor_id;sensor_type;location;lat;lon;timestamp;pressure;altitude;pressure_sealevel;temperature
70050;BMP180;57391;51.306;22.680;2024-02-14T00:00:21;100009.60;;;5.80
70050;BMP180;57391;51.306;22.680;2024-02-14T00:02:44;100013.40;;;5.80
70050;BMP180;57391;51.306;22.680;2024-02-14T00:04:46;100011.40;;;5.78
70050;BMP180;57391;51.306;22.680;2024-02-14T00:06:47;100010.80;;;5.80
70050;BMP180;57391;51.306;22.680;2024-02-14T00:08:49;100006.80;;;5.80
70050;BMP180;57391;51.306;22.680;2024-02-14T00:10:51;100006.60;;;5.80
70050;BMP180;57391;51.306;22.680;2024-02-14T00:12:52;100006.40;;;5.80
70050;BMP180;57391;51.306;22.680;2024-02-14T00:14:54;100009.60;;;5.70
70050;BMP180;57391;51.306;22.680;2024-02-14T00:16:56;100008.40;;;5.70
70050;BMP180;57391;51.306;22.680;2024-02-14T00:18:59;100014.20;;;5.70
70050;BMP180;57391;51.306;22.680;2024-02-14T00:21:01;100013.20;;;5.70
70050;BMP180;57391;51.306;22.680;2024-02-14T00:23:03;100017.20;;;5.70
70050;BMP180;57391;51.306;22.680;2024-02-14T00:25:05;100018.20;;;5.70
70050;BMP180;57391;51.306;22.680;2024-02-14T00:27:07;100019.20;;;5.70
70050;BMP180;57391;51.306;22.680;2024-02-14T00:29:09;100023.20;;;5.68
70050;BMP180;57391;51.306;22.680;2024-02-14T00:31:10;100025.00;;;5.62
70050;BMP180;57391;51.306;22.680;2024-02-14T00:33:12;100026.40;;;5.60
70050;BMP180;57391;51.306;22.680;2024-02-14T00:35:14;100031.80;;;5.60
70050;BMP180;57391;51.306;22.680;2024-02-14T00:37:16;100030.40;;;5.60
70050;BMP180;57391;51.306;22.680;2024-02-14T00:39:18;100038.60;;;5.62
70050;BMP180;57391;51.306;22.680;2024-02-14T00:41:20;100038.00;;;5.60
70050;BMP180;57391;51.306;22.680;2024-02-14T00:43:22;100036.80;;;5.60
70050;BMP180;57391;51.306;22.680;2024-02-14T00:45:23;100041.00;;;5.60
70050;BMP180;57391;51.306;22.680;2024-02-14T00:47:25;100039.40;;;5.60
70050;BMP180;57391;51.306;22.680;2024-02-14T00:49:28;100040.20;;;5.60
70050;BMP180;57391;51.306;22.680;2024-02-14T00:51:29;100039.00;;;5.60
70050;BMP180;57391;51.306;22.680;2024-02-14T00:53:31;100035.80;;;5.60
70050;BMP180;57391;51.306;22.680;2024-02-14T00:55:33;100036.60;;;5.60
70050;BMP180;57391;51.306;22.680;2024-02-14T00:57:35;100038.20;;;5.60
70050;BMP180;57391;51.306;22.680;2024-02-14T00:59:36;100035.00;;;5.60
70050;BMP180;57391;51.306;22.680;2024-02-14T01:01:39;100039.60;;;5.60
70050;BMP180;57391;51.306;22.680;2024-02-14T01:03:40;100038.40;;;5.60
70050;BMP180;57391;51.306;22.680;2024-02-14T01:05:42;100040.80;;;5.60
70050;BMP180;57391;51.306;22.680;2024-02-14T01:07:44;100040.40;;;5.60
70050;BMP180;57391;51.306;22.680;2024-02-14T01:09:47;100038.60;;;5.60
70050;BMP180;57391;51.306;22.680;2024-02-14T01:11:49;100043.40;;;5.64
70050;BMP180;57391;51.306;22.680;2024-02-14T01:13:52;100039.80;;;5.66
70050;BMP180;57391;51.306;22.680;2024-02-14T01:15:53;100038.80;;;5.66
70050;BMP180;57391;51.306;22.680;2024-02-14T01:17:55;100041.60;;;5.64
70050;BMP180;57391;51.306;22.680;2024-02-14T01:19:57;100039.80;;;5.64
70050;BMP180;57391;51.306;22.680;2024-02-14T01:22:00;100041.00;;;5.62
70050;BMP180;57391;51.306;22.680;2024-02-14T01:24:01;100041.00;;;5.60
70050;BMP180;57391;51.306;22.680;2024-02-14T01:26:03;100042.80;;;5.64
70050;BMP180;57391;51.306;22.680;2024-02-14T01:28:05;100045.00;;;5.66
70050;BMP180;57391;51.306;22.680;2024-02-14T01:30:10;100045.20;;;5.68
70050;BMP180;57391;51.306;22.680;2024-02-14T01:32:12;100041.60;;;5.68
70050;BMP180;57391;51.306;22.680;2024-02-14T01:34:14;100041.40;;;5.68
70050;BMP180;57391;51.306;22.680;2024-02-14T01:36:16;100046.00;;;5.70
70050;BMP180;57391;51.306;22.680;2024-02-14T01:38:18;100044.20;;;5.70
70050;BMP180;57391;51.306;22.680;2024-02-14T01:40:19;100044.40;;;5.70
70050;BMP180;57391;51.306;22.680;2024-02-14T01:42:21;100046.00;;;5.70
70050;BMP180;57391;51.306;22.680;2024-02-14T01:44:23;100049.40;;;5.62
70050;BMP180;57391;51.306;22.680;2024-02-14T01:46:25;100048.40;;;5.62
70050;BMP180;57391;51.306;22.680;2024-02-14T01:48:26;100050.60;;;5.60
70050;BMP180;57391;51.306;22.680;2024-02-14T01:50:29;100052.80;;;5.62
70050;BMP180;57391;51.306;22.680;2024-02-14T01:52:31;100052.40;;;5.60
70050;BMP180;57391;51.306;22.680;2024-02-14T01:54:34;100058.60;;;5.60
70050;BMP180;57391;51.306;22.680;2024-02-14T01:56:36;100060.20;;;5.60
70050;BMP180;57391;51.306;22.680;2024-02-14T01:58:38;100063.00;;;5.60
70050;BMP180;57391;51.306;22.680;2024-02-14T02:00:41;100063.40;;;5.60
70050;BMP180;57391;51.306;22.680;2024-02-14T02:02:44;100064.00;;;5.60
70050;BMP180;57391;51.306;22.680;2024-02-14T02:04:45;100067.80;;;5.60
70050;BMP180;57391;51.306;22.680;2024-02-14T02:06:48;100068.60;;;5.60
70050;BMP180;57391;51.306;22.680;2024-02-14T02:08:49;100073.00;;;5.60
70050;BMP180;57391;51.306;22.680;2024-02-14T02:10:51;100068.20;;;5.60
70050;BMP180;57391;51.306;22.680;2024-02-14T02:12:59;100069.80;;;5.60
70050;BMP180;57391;51.306;22.680;2024-02-14T02:15:01;100070.80;;;5.60
70050;BMP180;57391;51.306;22.680;2024-02-14T02:17:04;100076.20;;;5.60
70050;BMP180;57391;51.306;22.680;2024-02-14T02:19:09;100079.40;;;5.60
70050;BMP180;57391;51.306;22.680;2024-02-14T02:21:11;100070.80;;;5.52
70050;BMP180;57391;51.306;22.680;2024-02-14T02:23:14;100078.60;;;5.50
70050;BMP180;57391;51.306;22.680;2024-02-14T02:25:16;100080.60;;;5.50
70050;BMP180;57391;51.306;22.680;2024-02-14T02:27:17;100082.20;;;5.50
70050;BMP180;57391;51.306;22.680;2024-02-14T02:29:19;100076.80;;;5.50
70050;BMP180;57391;51.306;22.680;2024-02-14T02:31:21;100080.20;;;5.50
70050;BMP180;57391;51.306;22.680;2024-02-14T02:33:23;100081.80;;;5.50
70050;BMP180;57391;51.306;22.680;2024-02-14T02:35:25;100086.20;;;5.50
70050;BMP180;57391;51.306;22.680;2024-02-14T02:37:27;100088.20;;;5.50
70050;BMP180;57391;51.306;22.680;2024-02-14T02:39:31;100093.20;;;5.44
70050;BMP180;57391;51.306;22.680;2024-02-14T02:41:32;100098.80;;;5.40
70050;BMP180;57391;51.306;22.680;2024-02-14T02:43:35;100096.80;;;5.40
70050;BMP180;57391;51.306;22.680;2024-02-14T02:45:37;100101.20;;;5.40
70050;BMP180;57391;51.306;22.680;2024-02-14T02:47:39;100102.00;;;5.42
70050;BMP180;57391;51.306;22.680;2024-02-14T02:49:41;100103.80;;;5.42
70050;BMP180;57391;51.306;22.680;2024-02-14T02:51:44;100103.60;;;5.42
70050;BMP180;57391;51.306;22.680;2024-02-14T02:53:45;100101.40;;;5.50
70050;BMP180;57391;51.306;22.680;2024-02-14T02:55:47;100102.20;;;5.50
70050;BMP180;57391;51.306;22.680;2024-02-14T02:57:53;100098.60;;;5.50
70050;BMP180;57391;51.306;22.680;2024-02-14T02:59:54;100099.80;;;5.50
70050;BMP180;57391;51.306;22.680;2024-02-14T03:01:56;100094.60;;;5.50
70050;BMP180;57391;51.306;22.680;2024-02-14T03:03:59;100103.40;;;5.50
70050;BMP180;57391;51.306;22.680;2024-02-14T03:06:01;100108.60;;;5.50
70050;BMP180;57391;51.306;22.680;2024-02-14T03:08:05;100109.00;;;5.48
70050;BMP180;57391;51.306;22.680;2024-02-14T03:10:09;100113.20;;;5.50
70050;BMP180;57391;51.306;22.680;2024-02-14T03:12:11;100115.20;;;5.48
70050;BMP180;57391;51.306;22.680;2024-02-14T03:14:12;100117.60;;;5.50
70050;BMP180;57391;51.306;22.680;2024-02-14T03:16:15;100118.80;;;5.50
70050;BMP180;57391;51.306;22.680;2024-02-14T03:18:18;100121.00;;;5.50
70050;BMP180;57391;51.306;22.680;2024-02-14T03:20:20;100121.40;;;5.50
70050;BMP180;57391;51.306;22.680;2024-02-14T03:22:22;100120.20;;;5.50
70050;BMP180;57391;51.306;22.680;2024-02-14T03:24:24;100124.20;;;5.50
70050;BMP180;57391;51.306;22.680;2024-02-14T03:26:28;100126.80;;;5.50
70050;BMP180;57391;51.306;22.680;2024-02-14T03:28:30;100122.20;;;5.50
70050;BMP180;57391;51.306;22.680;2024-02-14T03:30:32;100126.60;;;5.50
70050;BMP180;57391;51.306;22.680;2024-02-14T03:32:35;100133.20;;;5.50
70050;BMP180;57391;51.306;22.680;2024-02-14T03:34:37;100129.20;;;5.50
70050;BMP180;57391;51.306;22.680;2024-02-14T03:36:38;100134.20;;;5.50
70050;BMP180;57391;51.306;22.680;2024-02-14T03:38:40;100133.60;;;5.50
70050;BMP180;57391;51.306;22.680;2024-02-14T03:40:42;100134.80;;;5.50
70050;BMP180;57391;51.306;22.680;2024-02-14T03:42:47;100131.20;;;5.50
70050;BMP180;57391;51.306;22.680;2024-02-14T03:44:49;100133.20;;;5.50
70050;BMP180;57391;51.306;22.680;2024-02-14T03:46:51;100139.20;;;5.52
70050;BMP180;57391;51.306;22.680;2024-02-14T03:48:53;100139.60;;;5.50
70050;BMP180;57391;51.306;22.680;2024-02-14T03:50:55;100135.80;;;5.50
70050;BMP180;57391;51.306;22.680;2024-02-14T03:52:58;100136.60;;;5.50
70050;BMP180;57391;51.306;22.680;2024-02-14T03:55:01;100135.40;;;5.50
70050;BMP180;57391;51.306;22.680;2024-02-14T03:57:04;100144.00;;;5.50
70050;BMP180;57391;51.306;22.680;2024-02-14T03:59:09;100146.00;;;5.50
70050;BMP180;57391;51.306;22.680;2024-02-14T04:01:11;100146.20;;;5.50
70050;BMP180;57391;51.306;22.680;2024-02-14T04:03:13;100145.20;;;5.50
70050;BMP180;57391;51.306;22.680;2024-02-14T04:05:15;100152.20;;;5.50
70050;BMP180;57391;51.306;22.680;2024-02-14T04:07:17;100146.60;;;5.50
70050;BMP180;57391;51.306;22.680;2024-02-14T04:09:19;100146.80;;;5.50
70050;BMP180;57391;51.306;22.680;2024-02-14T04:11:21;100148.40;;;5.50
70050;BMP180;57391;51.306;22.680;2024-02-14T04:13:23;100151.60;;;5.50
70050;BMP180;57391;51.306;22.680;2024-02-14T04:15:24;100154.80;;;5.50
70050;BMP180;57391;51.306;22.680;2024-02-14T04:17:26;100157.60;;;5.50
70050;BMP180;57391;51.306;22.680;2024-02-14T04:19:28;100156.20;;;5.50
70050;BMP180;57391;51.306;22.680;2024-02-14T04:21:31;100156.40;;;5.50
70050;BMP180;57391;51.306;22.680;2024-02-14T04:23:33;100156.80;;;5.50
70050;BMP180;57391;51.306;22.680;2024-02-14T04:25:35;100157.80;;;5.44
70050;BMP180;57391;51.306;22.680;2024-02-14T04:27:37;100156.60;;;5.40
70050;BMP180;57391;51.306;22.680;2024-02-14T04:29:39;100157.60;;;5.40
70050;BMP180;57391;51.306;22.680;2024-02-14T04:31:41;100159.60;;;5.40
70050;BMP180;57391;51.306;22.680;2024-02-14T04:33:44;100166.20;;;5.40
70050;BMP180;57391;51.306;22.680;2024-02-14T04:35:48;100163.80;;;5.40
70050;BMP180;57391;51.306;22.680;2024-02-14T04:37:49;100168.40;;;5.40
70050;BMP180;57391;51.306;22.680;2024-02-14T04:39:52;100170.60;;;5.40
70050;BMP180;57391;51.306;22.680;2024-02-14T04:41:54;100167.00;;;5.40
70050;BMP180;57391;51.306;22.680;2024-02-14T04:43:56;100164.40;;;5.32
70050;BMP180;57391;51.306;22.680;2024-02-14T04:45:57;100170.40;;;5.30
70050;BMP180;57391;51.306;22.680;2024-02-14T04:47:59;100167.80;;;5.30
70050;BMP180;57391;51.306;22.680;2024-02-14T04:50:01;100170.40;;;5.30
70050;BMP180;57391;51.306;22.680;2024-02-14T04:52:05;100167.20;;;5.30
70050;BMP180;57391;51.306;22.680;2024-02-14T04:54:09;100171.80;;;5.30
70050;BMP180;57391;51.306;22.680;2024-02-14T04:56:11;100173.40;;;5.30
70050;BMP180;57391;51.306;22.680;2024-02-14T04:58:13;100174.00;;;5.26
70050;BMP180;57391;51.306;22.680;2024-02-14T05:00:15;100172.20;;;5.28
70050;BMP180;57391;51.306;22.680;2024-02-14T05:02:17;100176.20;;;5.24
70050;BMP180;57391;51.306;22.680;2024-02-14T05:04:18;100183.20;;;5.20
70050;BMP180;57391;51.306;22.680;2024-02-14T05:06:20;100186.20;;;5.20
70050;BMP180;57391;51.306;22.680;2024-02-14T05:08:22;100184.40;;;5.20
70050;BMP180;57391;51.306;22.680;2024-02-14T05:10:24;100183.00;;;5.20
70050;BMP180;57391;51.306;22.680;2024-02-14T05:12:26;100183.80;;;5.20
70050;BMP180;57391;51.306;22.680;2024-02-14T05:14:27;100183.20;;;5.20
70050;BMP180;57391;51.306;22.680;2024-02-14T05:16:32;100189.00;;;5.20
70050;BMP180;57391;51.306;22.680;2024-02-14T05:18:34;100189.80;;;5.20
70050;BMP180;57391;51.306;22.680;2024-02-14T05:20:36;100187.60;;;5.20
70050;BMP180;57391;51.306;22.680;2024-02-14T05:22:39;100191.80;;;5.20
70050;BMP180;57391;51.306;22.680;2024-02-14T05:24:41;100192.80;;;5.20
70050;BMP180;57391;51.306;22.680;2024-02-14T05:26:43;100195.80;;;5.20
70050;BMP180;57391;51.306;22.680;2024-02-14T05:28:45;100197.20;;;5.20
70050;BMP180;57391;51.306;22.680;2024-02-14T05:30:46;100200.00;;;5.20
70050;BMP180;57391;51.306;22.680;2024-02-14T05:32:48;100200.00;;;5.20
70050;BMP180;57391;51.306;22.680;2024-02-14T05:34:53;100201.40;;;5.20
70050;BMP180;57391;51.306;22.680;2024-02-14T05:36:55;100200.00;;;5.20
70050;BMP180;57391;51.306;22.680;2024-02-14T05:38:57;100198.80;;;5.20
70050;BMP180;57391;51.306;22.680;2024-02-14T05:40:59;100203.60;;;5.20
70050;BMP180;57391;51.306;22.680;2024-02-14T05:43:01;100201.40;;;5.20
70050;BMP180;57391;51.306;22.680;2024-02-14T05:45:04;100198.20;;;5.20
70050;BMP180;57391;51.306;22.680;2024-02-14T05:47:07;100199.20;;;5.20
70050;BMP180;57391;51.306;22.680;2024-02-14T05:49:08;100200.00;;;5.20
70050;BMP180;57391;51.306;22.680;2024-02-14T05:51:10;100205.60;;;5.20
70050;BMP180;57391;51.306;22.680;2024-02-14T05:53:12;100208.60;;;5.20
70050;BMP180;57391;51.306;22.680;2024-02-14T05:55:14;100208.60;;;5.20
70050;BMP180;57391;51.306;22.680;2024-02-14T05:57:16;100213.00;;;5.24
70050;BMP180;57391;51.306;22.680;2024-02-14T05:59:18;100210.40;;;5.30
70050;BMP180;57391;51.306;22.680;2024-02-14T06:01:20;100212.60;;;5.30
70050;BMP180;57391;51.306;22.680;2024-02-14T06:03:22;100213.60;;;5.30
70050;BMP180;57391;51.306;22.680;2024-02-14T06:05:24;100220.00;;;5.30
70050;BMP180;57391;51.306;22.680;2024-02-14T06:07:26;100220.40;;;5.30
70050;BMP180;57391;51.306;22.680;2024-02-14T06:09:28;100223.20;;;5.30
70050;BMP180;57391;51.306;22.680;2024-02-14T06:11:30;100224.00;;;5.30
70050;BMP180;57391;51.306;22.680;2024-02-14T06:13:33;100224.20;;;5.30
70050;BMP180;57391;51.306;22.680;2024-02-14T06:15:37;100224.60;;;5.32
70050;BMP180;57391;51.306;22.680;2024-02-14T06:17:38;100229.20;;;5.32
70050;BMP180;57391;51.306;22.680;2024-02-14T06:19:40;100224.40;;;5.36
70050;BMP180;57391;51.306;22.680;2024-02-14T06:21:42;100217.60;;;5.38
70050;BMP180;57391;51.306;22.680;2024-02-14T06:23:44;100223.40;;;5.38
70050;BMP180;57391;51.306;22.680;2024-02-14T06:25:48;100223.80;;;5.40
70050;BMP180;57391;51.306;22.680;2024-02-14T06:27:50;100222.80;;;5.40
70050;BMP180;57391;51.306;22.680;2024-02-14T06:29:51;100222.40;;;5.40
70050;BMP180;57391;51.306;22.680;2024-02-14T06:31:54;100232.20;;;5.48
70050;BMP180;57391;51.306;22.680;2024-02-14T06:33:56;100232.60;;;5.50
70050;BMP180;57391;51.306;22.680;2024-02-14T06:35:58;100231.60;;;5.50
70050;BMP180;57391;51.306;22.680;2024-02-14T06:38:00;100234.60;;;5.50
70050;BMP180;57391;51.306;22.680;2024-02-14T06:40:02;100239.20;;;5.52
70050;BMP180;57391;51.306;22.680;2024-02-14T06:42:04;100237.00;;;5.50
70050;BMP180;57391;51.306;22.680;2024-02-14T06:44:06;100239.20;;;5.54
70050;BMP180;57391;51.306;22.680;2024-02-14T06:46:07;100239.20;;;5.54
70050;BMP180;57391;51.306;22.680;2024-02-14T06:48:09;100237.80;;;5.58
70050;BMP180;57391;51.306;22.680;2024-02-14T06:50:11;100240.60;;;5.58
70050;BMP180;57391;51.306;22.680;2024-02-14T06:52:13;100250.40;;;5.60
70050;BMP180;57391;51.306;22.680;2024-02-14T06:54:23;100252.00;;;5.60
70050;BMP180;57391;51.306;22.680;2024-02-14T06:56:36;100254.80;;;5.60
70050;BMP180;57391;51.306;22.680;2024-02-14T06:58:39;100258.20;;;5.60
70050;BMP180;57391;51.306;22.680;2024-02-14T07:00:41;100257.20;;;5.60
70050;BMP180;57391;51.306;22.680;2024-02-14T07:02:42;100257.00;;;5.60
70050;BMP180;57391;51.306;22.680;2024-02-14T07:04:44;100259.40;;;5.62
70050;BMP180;57391;51.306;22.680;2024-02-14T07:06:46;100256.60;;;5.70
70050;BMP180;57391;51.306;22.680;2024-02-14T07:08:48;100250.60;;;5.70
70050;BMP180;57391;51.306;22.680;2024-02-14T07:10:50;100254.20;;;5.70
70050;BMP180;57391;51.306;22.680;2024-02-14T07:12:52;100250.00;;;5.78
70050;BMP180;57391;51.306;22.680;2024-02-14T07:14:53;100248.60;;;5.80
70050;BMP180;57391;51.306;22.680;2024-02-14T07:16:55;100249.80;;;5.80
70050;BMP180;57391;51.306;22.680;2024-02-14T07:18:57;100252.40;;;5.80
70050;BMP180;57391;51.306;22.680;2024-02-14T07:20:59;100250.20;;;5.88
70050;BMP180;57391;51.306;22.680;2024-02-14T07:23:00;100251.20;;;5.90
70050;BMP180;57391;51.306;22.680;2024-02-14T07:25:02;100250.60;;;5.90
70050;BMP180;57391;51.306;22.680;2024-02-14T07:27:06;100254.40;;;6.00
70050;BMP180;57391;51.306;22.680;2024-02-14T07:29:08;100260.20;;;6.00
70050;BMP180;57391;51.306;22.680;2024-02-14T07:31:09;100263.00;;;6.00
70050;BMP180;57391;51.306;22.680;2024-02-14T07:33:11;100258.60;;;6.10
70050;BMP180;57391;51.306;22.680;2024-02-14T07:35:14;100257.20;;;6.10
70050;BMP180;57391;51.306;22.680;2024-02-14T07:37:16;100259.40;;;6.14
70050;BMP180;57391;51.306;22.680;2024-02-14T07:39:19;100263.00;;;6.20
70050;BMP180;57391;51.306;22.680;2024-02-14T07:41:21;100264.40;;;6.20
70050;BMP180;57391;51.306;22.680;2024-02-14T07:43:23;100265.40;;;6.20
70050;BMP180;57391;51.306;22.680;2024-02-14T07:45:25;100267.00;;;6.20
70050;BMP180;57391;51.306;22.680;2024-02-14T07:47:26;100261.40;;;6.22
70050;BMP180;57391;51.306;22.680;2024-02-14T07:49:31;100262.40;;;6.40
70050;BMP180;57391;51.306;22.680;2024-02-14T07:51:33;100261.00;;;6.70
70050;BMP180;57391;51.306;22.680;2024-02-14T07:53:40;100256.60;;;7.16
70050;BMP180;57391;51.306;22.680;2024-02-14T07:55:42;100262.80;;;7.66
70050;BMP180;57391;51.306;22.680;2024-02-14T07:57:44;100266.00;;;8.14
70050;BMP180;57391;51.306;22.680;2024-02-14T07:59:46;100268.80;;;8.46
70050;BMP180;57391;51.306;22.680;2024-02-14T08:01:47;100271.20;;;8.80
70050;BMP180;57391;51.306;22.680;2024-02-14T08:03:49;100275.60;;;9.00
70050;BMP180;57391;51.306;22.680;2024-02-14T08:05:51;100272.80;;;9.10
70050;BMP180;57391;51.306;22.680;2024-02-14T08:07:53;100269.40;;;9.24
70050;BMP180;57391;51.306;22.680;2024-02-14T08:09:54;100270.00;;;9.50
70050;BMP180;57391;51.306;22.680;2024-02-14T08:11:56;100268.00;;;9.82
70050;BMP180;57391;51.306;22.680;2024-02-14T08:13:58;100267.20;;;10.10
70050;BMP180;57391;51.306;22.680;2024-02-14T08:16:01;100269.80;;;10.30
70050;BMP180;57391;51.306;22.680;2024-02-14T08:18:03;100268.00;;;10.60
70050;BMP180;57391;51.306;22.680;2024-02-14T08:20:05;100269.80;;;10.92
70050;BMP180;57391;51.306;22.680;2024-02-14T08:22:07;100275.80;;;11.18
70050;BMP180;57391;51.306;22.680;2024-02-14T08:24:09;100278.60;;;11.32
70050;BMP180;57391;51.306;22.680;2024-02-14T08:26:11;100274.40;;;11.50
70050;BMP180;57391;51.306;22.680;2024-02-14T08:28:13;100273.00;;;11.70
70050;BMP180;57391;51.306;22.680;2024-02-14T08:30:15;100281.60;;;11.80
70050;BMP180;57391;51.306;22.680;2024-02-14T08:32:16;100283.00;;;11.80
70050;BMP180;57391;51.306;22.680;2024-02-14T08:34:19;100288.40;;;11.80
70050;BMP180;57391;51.306;22.680;2024-02-14T08:36:22;100288.80;;;11.88
70050;BMP180;57391;51.306;22.680;2024-02-14T08:38:23;100290.00;;;11.90
70050;BMP180;57391;51.306;22.680;2024-02-14T08:40:25;100291.40;;;12.00
70050;BMP180;57391;51.306;22.680;2024-02-14T08:42:27;100290.40;;;12.10
70050;BMP180;57391;51.306;22.680;2024-02-14T08:44:29;100289.60;;;12.18
70050;BMP180;57391;51.306;22.680;2024-02-14T08:46:31;100290.60;;;12.20
70050;BMP180;57391;51.306;22.680;2024-02-14T08:48:33;100293.80;;;12.22
70050;BMP180;57391;51.306;22.680;2024-02-14T08:50:36;100295.60;;;12.30
70050;BMP180;57391;51.306;22.680;2024-02-14T08:52:38;100297.40;;;12.38
70050;BMP180;57391;51.306;22.680;2024-02-14T08:54:40;100293.00;;;12.54
70050;BMP180;57391;51.306;22.680;2024-02-14T08:56:44;100290.80;;;12.60
70050;BMP180;57391;51.306;22.680;2024-02-14T08:58:46;100294.00;;;12.60
70050;BMP180;57391;51.306;22.680;2024-02-14T09:00:48;100294.60;;;12.70
70050;BMP180;57391;51.306;22.680;2024-02-14T09:02:50;100291.60;;;12.80
70050;BMP180;57391;51.306;22.680;2024-02-14T09:04:52;100292.20;;;12.80
70050;BMP180;57391;51.306;22.680;2024-02-14T09:06:53;100292.40;;;12.60
70050;BMP180;57391;51.306;22.680;2024-02-14T09:08:55;100294.80;;;12.40
70050;BMP180;57391;51.306;22.680;2024-02-14T09:10:57;100294.00;;;12.20
70050;BMP180;57391;51.306;22.680;2024-02-14T09:13:00;100294.00;;;11.90
70050;BMP180;57391;51.306;22.680;2024-02-14T09:15:04;100294.40;;;11.70
70050;BMP180;57391;51.306;22.680;2024-02-14T09:17:06;100296.80;;;11.50
70050;BMP180;57391;51.306;22.680;2024-02-14T09:19:09;100297.40;;;11.38
70050;BMP180;57391;51.306;22.680;2024-02-14T09:21:11;100299.60;;;11.20
70050;BMP180;57391;51.306;22.680;2024-02-14T09:23:13;100298.40;;;11.10
70050;BMP180;57391;51.306;22.680;2024-02-14T09:25:16;100300.20;;;10.90
70050;BMP180;57391;51.306;22.680;2024-02-14T09:27:18;100303.80;;;10.90
70050;BMP180;57391;51.306;22.680;2024-02-14T09:29:20;100304.20;;;10.80
70050;BMP180;57391;51.306;22.680;2024-02-14T09:31:22;100304.40;;;10.70
70050;BMP180;57391;51.306;22.680;2024-02-14T09:33:23;100297.20;;;10.70
70050;BMP180;57391;51.306;22.680;2024-02-14T09:35:26;100301.60;;;10.80
70050;BMP180;57391;51.306;22.680;2024-02-14T09:37:27;100305.40;;;10.80
70050;BMP180;57391;51.306;22.680;2024-02-14T09:39:30;100307.20;;;10.80
70050;BMP180;57391;51.306;22.680;2024-02-14T09:41:37;100308.00;;;10.78
70050;BMP180;57391;51.306;22.680;2024-02-14T09:43:44;100309.60;;;10.70
70050;BMP180;57391;51.306;22.680;2024-02-14T09:45:50;100301.80;;;10.60
70050;BMP180;57391;51.306;22.680;2024-02-14T09:47:53;100305.20;;;10.40
70050;BMP180;57391;51.306;22.680;2024-02-14T09:49:57;100311.60;;;10.30
70050;BMP180;57391;51.306;22.680;2024-02-14T09:52:02;100309.20;;;10.20
70050;BMP180;57391;51.306;22.680;2024-02-14T09:54:07;100305.20;;;10.10
70050;BMP180;57391;51.306;22.680;2024-02-14T09:56:10;100307.80;;;9.98
70050;BMP180;57391;51.306;22.680;2024-02-14T09:58:17;100311.00;;;9.90
70050;BMP180;57391;51.306;22.680;2024-02-14T10:00:21;100311.40;;;9.80
70050;BMP180;57391;51.306;22.680;2024-02-14T10:02:23;100313.40;;;9.80
70050;BMP180;57391;51.306;22.680;2024-02-14T10:04:24;100312.40;;;9.76
70050;BMP180;57391;51.306;22.680;2024-02-14T10:06:26;100304.80;;;9.80
70050;BMP180;57391;51.306;22.680;2024-02-14T10:08:29;100306.00;;;9.80
70050;BMP180;57391;51.306;22.680;2024-02-14T10:10:32;100304.60;;;9.88
70050;BMP180;57391;51.306;22.680;2024-02-14T10:12:36;100305.00;;;9.90
70050;BMP180;57391;51.306;22.680;2024-02-14T10:14:38;100304.40;;;9.82
70050;BMP180;57391;51.306;22.680;2024-02-14T10:16:40;100303.20;;;9.80
70050;BMP180;57391;51.306;22.680;2024-02-14T10:18:42;100305.40;;;9.70
70050;BMP180;57391;51.306;22.680;2024-02-14T10:20:56;100299.80;;;9.70
70050;BMP180;57391;51.306;22.680;2024-02-14T10:23:02;100298.00;;;9.70
70050;BMP180;57391;51.306;22.680;2024-02-14T10:25:06;100299.80;;;9.62
70050;BMP180;57391;51.306;22.680;2024-02-14T10:27:11;100292.80;;;9.60
70050;BMP180;57391;51.306;22.680;2024-02-14T10:29:13;100288.00;;;9.60
70050;BMP180;57391;51.306;22.680;2024-02-14T10:31:16;100288.00;;;9.70
70050;BMP180;57391;51.306;22.680;2024-02-14T10:33:18;100289.60;;;9.80
70050;BMP180;57391;51.306;22.680;2024-02-14T10:35:22;100287.00;;;10.00
70050;BMP180;57391;51.306;22.680;2024-02-14T10:37:25;100291.40;;;10.20
70050;BMP180;57391;51.306;22.680;2024-02-14T10:39:29;100291.60;;;10.36
70050;BMP180;57391;51.306;22.680;2024-02-14T10:41:33;100287.60;;;10.50
70050;BMP180;57391;51.306;22.680;2024-02-14T10:43:37;100287.40;;;10.70
70050;BMP180;57391;51.306;22.680;2024-02-14T10:45:41;100286.40;;;10.90
70050;BMP180;57391;51.306;22.680;2024-02-14T10:47:45;100283.20;;;11.00
70050;BMP180;57391;51.306;22.680;2024-02-14T10:49:51;100286.60;;;11.20
70050;BMP180;57391;51.306;22.680;2024-02-14T10:51:56;100283.40;;;11.36
70050;BMP180;57391;51.306;22.680;2024-02-14T10:54:04;100285.80;;;11.40
70050;BMP180;57391;51.306;22.680;2024-02-14T10:56:08;100287.40;;;11.40
70050;BMP180;57391;51.306;22.680;2024-02-14T10:58:12;100288.60;;;11.30
70050;BMP180;57391;51.306;22.680;2024-02-14T11:00:17;100287.80;;;11.20
70050;BMP180;57391;51.306;22.680;2024-02-14T11:02:20;100285.60;;;11.10
70050;BMP180;57391;51.306;22.680;2024-02-14T11:04:23;100284.40;;;10.92
70050;BMP180;57391;51.306;22.680;2024-02-14T11:06:25;100283.80;;;10.90
70050;BMP180;57391;51.306;22.680;2024-02-14T11:08:29;100285.00;;;10.80
70050;BMP180;57391;51.306;22.680;2024-02-14T11:10:37;100285.80;;;10.80
70050;BMP180;57391;51.306;22.680;2024-02-14T11:12:40;100286.60;;;10.70
70050;BMP180;57391;51.306;22.680;2024-02-14T11:14:42;100284.20;;;10.70
70050;BMP180;57391;51.306;22.680;2024-02-14T11:16:46;100283.20;;;10.70
70050;BMP180;57391;51.306;22.680;2024-02-14T11:18:48;100281.00;;;10.60
70050;BMP180;57391;51.306;22.680;2024-02-14T11:20:50;100279.80;;;10.60
70050;BMP180;57391;51.306;22.680;2024-02-14T11:23:02;100282.60;;;10.60
70050;BMP180;57391;51.306;22.680;2024-02-14T11:25:14;100287.80;;;10.54
70050;BMP180;57391;51.306;22.680;2024-02-14T11:27:20;100287.80;;;10.50
70050;BMP180;57391;51.306;22.680;2024-02-14T11:29:29;100284.80;;;10.50
70050;BMP180;57391;51.306;22.680;2024-02-14T11:31:35;100286.60;;;10.50
70050;BMP180;57391;51.306;22.680;2024-02-14T11:33:39;100285.80;;;10.50